createdAt,value
2023-05-05T00:00:22.682Z,99297.00
2023-05-05T00:01:22.690Z,99290.00
2023-05-05T00:02:22.732Z,99286.00
2023-05-05T00:03:23.043Z,99288.00
2023-05-05T00:04:22.853Z,99285.00
2023-05-05T00:05:22.727Z,99286.00
2023-05-05T00:06:22.738Z,99285.00
2023-05-05T00:07:22.703Z,99288.00
2023-05-05T00:08:22.732Z,99286.00
2023-05-05T00:09:22.764Z,99287.00
2023-05-05T00:10:22.789Z,99286.00
2023-05-05T00:11:22.773Z,99285.00
2023-05-05T00:12:22.811Z,99279.00
2023-05-05T00:13:22.782Z,99288.00
2023-05-05T00:14:22.790Z,99277.00
2023-05-05T00:15:22.821Z,99282.00
2023-05-05T00:16:22.897Z,99284.00
2023-05-05T00:17:22.876Z,99289.00
2023-05-05T00:18:22.864Z,99288.00
2023-05-05T00:19:22.887Z,99286.00
2023-05-05T00:20:22.903Z,99284.00
2023-05-05T00:21:22.933Z,99284.00
2023-05-05T00:22:22.998Z,99279.00
2023-05-05T00:23:22.956Z,99274.00
2023-05-05T00:24:22.966Z,99280.00
2023-05-05T00:25:22.988Z,99275.00
2023-05-05T00:26:23.001Z,99270.00
2023-05-05T00:27:23.024Z,99272.00
2023-05-05T00:28:23.007Z,99276.00
2023-05-05T00:29:23.030Z,99269.00
2023-05-05T00:30:23.065Z,99272.00
2023-05-05T00:31:23.155Z,99275.00
2023-05-05T00:32:23.108Z,99276.00
2023-05-05T00:33:23.083Z,99279.00
2023-05-05T00:34:23.090Z,99283.00
2023-05-05T00:35:23.138Z,99270.00
2023-05-05T00:36:23.150Z,99277.00
2023-05-05T00:37:23.141Z,99274.00
2023-05-05T00:38:23.199Z,99272.00
2023-05-05T00:39:23.158Z,99277.00
2023-05-05T00:40:23.189Z,99275.00
2023-05-05T00:41:23.206Z,99271.00
2023-05-05T00:42:23.235Z,99272.00
2023-05-05T00:43:23.260Z,99271.00
2023-05-05T00:44:23.249Z,99275.00
2023-05-05T00:45:23.253Z,99272.00
2023-05-05T00:46:23.588Z,99273.00
2023-05-05T00:47:23.288Z,99267.00
2023-05-05T00:48:23.279Z,99267.00
2023-05-05T00:49:23.354Z,99273.00
2023-05-05T00:50:23.335Z,99274.00
2023-05-05T00:51:23.358Z,99273.00
2023-05-05T00:52:23.377Z,99265.00
2023-05-05T00:53:23.360Z,99273.00
2023-05-05T00:54:23.389Z,99265.00
2023-05-05T00:55:23.409Z,99266.00
2023-05-05T00:56:23.415Z,99266.00
2023-05-05T00:57:23.441Z,99258.00
2023-05-05T00:58:23.427Z,99259.00
2023-05-05T00:59:23.448Z,99257.00
2023-05-05T01:00:23.476Z,99262.00
2023-05-05T01:01:23.495Z,99263.00
2023-05-05T01:02:23.506Z,99271.00
2023-05-05T01:03:23.694Z,99272.00
2023-05-05T01:04:23.595Z,99271.00
2023-05-05T01:05:23.554Z,99275.00
2023-05-05T01:06:23.576Z,99272.00
2023-05-05T01:07:23.586Z,99267.00
2023-05-05T01:08:23.627Z,99267.00
2023-05-05T01:09:23.630Z,99265.00
2023-05-05T01:10:23.935Z,99267.00
2023-05-05T01:11:23.636Z,99265.00
2023-05-05T01:12:23.665Z,99266.00
2023-05-05T01:13:23.692Z,99263.00
2023-05-05T01:14:23.702Z,99265.00
2023-05-05T01:15:23.717Z,99265.00
2023-05-05T01:16:23.813Z,99265.00
2023-05-05T01:17:23.764Z,99265.00
2023-05-05T01:18:23.753Z,99271.00
2023-05-05T01:19:23.799Z,99272.00
2023-05-05T01:20:23.794Z,99268.00
2023-05-05T01:21:23.756Z,99269.00
2023-05-05T01:22:23.763Z,99273.00
2023-05-05T01:23:23.790Z,99273.00
2023-05-05T01:24:23.801Z,99271.00
2023-05-05T01:25:23.816Z,99274.00
2023-05-05T01:26:23.891Z,99273.00
2023-05-05T01:27:23.845Z,99274.00
2023-05-05T01:28:23.872Z,99275.00
2023-05-05T01:29:23.852Z,99268.00
2023-05-05T01:30:23.872Z,99271.00
2023-05-05T01:31:23.909Z,99270.00
2023-05-05T01:32:23.909Z,99274.00
2023-05-05T01:33:23.897Z,99271.00
2023-05-05T01:34:23.919Z,99277.00
2023-05-05T01:35:23.999Z,99276.00
2023-05-05T01:36:23.945Z,99274.00
2023-05-05T01:37:24.001Z,99277.00
2023-05-05T01:38:23.965Z,99279.00
2023-05-05T01:39:23.991Z,99274.00
2023-05-05T01:40:24.300Z,99274.00
2023-05-05T01:41:24.058Z,99272.00
2023-05-05T01:42:24.064Z,99272.00
2023-05-05T01:43:24.025Z,99276.00
2023-05-05T01:44:24.051Z,99271.00
2023-05-05T01:45:24.063Z,99272.00
2023-05-05T01:46:24.133Z,99267.00
2023-05-05T01:47:24.088Z,99267.00
2023-05-05T01:48:24.110Z,99268.00
2023-05-05T01:49:24.129Z,99264.00
2023-05-05T01:50:24.133Z,99262.00
2023-05-05T01:51:24.170Z,99264.00
2023-05-05T01:52:24.175Z,99265.00
2023-05-05T01:53:24.208Z,99264.00
2023-05-05T01:54:24.220Z,99269.00
2023-05-05T01:55:24.237Z,99270.00
2023-05-05T01:56:24.267Z,99272.00
2023-05-05T01:57:24.244Z,99271.00
2023-05-05T01:58:24.284Z,99272.00
2023-05-05T01:59:24.285Z,99267.00
2023-05-05T02:00:24.347Z,99266.00
2023-05-05T02:01:24.327Z,99265.00
2023-05-05T02:02:24.401Z,99264.00
2023-05-05T02:03:24.373Z,99261.00
2023-05-05T02:04:24.356Z,99260.00
2023-05-05T02:05:24.373Z,99263.00
2023-05-05T02:06:24.355Z,99260.00
2023-05-05T02:07:24.373Z,99258.00
2023-05-05T02:08:24.410Z,99262.00
2023-05-05T02:09:24.416Z,99261.00
2023-05-05T02:10:24.441Z,99257.00
2023-05-05T02:11:24.458Z,99259.00
2023-05-05T02:12:24.474Z,99258.00
2023-05-05T02:13:24.560Z,99259.00
2023-05-05T02:14:24.526Z,99260.00
2023-05-05T02:15:24.544Z,99259.00
2023-05-05T02:16:24.520Z,99257.00
2023-05-05T02:17:24.600Z,99257.00
2023-05-05T02:18:24.549Z,99253.00
2023-05-05T02:19:24.563Z,99258.00
2023-05-05T02:20:24.575Z,99256.00
2023-05-05T02:21:24.580Z,99257.00
2023-05-05T02:22:24.616Z,99257.00
2023-05-05T02:23:24.597Z,99250.00
2023-05-05T02:24:24.613Z,99250.00
2023-05-05T02:25:24.631Z,99248.00
2023-05-05T02:26:24.662Z,99253.00
2023-05-05T02:27:24.715Z,99255.00
2023-05-05T02:28:24.719Z,99253.00
2023-05-05T02:29:24.750Z,99255.00
2023-05-05T02:30:24.794Z,99251.00
2023-05-05T02:31:24.826Z,99254.00
2023-05-05T02:32:24.840Z,99251.00
2023-05-05T02:33:24.821Z,99252.00
2023-05-05T02:34:24.845Z,99254.00
2023-05-05T02:35:24.865Z,99248.00
2023-05-05T02:36:24.887Z,99245.00
2023-05-05T02:37:25.178Z,99243.00
2023-05-05T02:38:24.907Z,99245.00
2023-05-05T02:39:24.918Z,99243.00
2023-05-05T02:40:24.938Z,99239.00
2023-05-05T02:41:24.949Z,99235.00
2023-05-05T02:42:24.981Z,99239.00
2023-05-05T02:43:24.992Z,99239.00
2023-05-05T02:44:24.994Z,99245.00
2023-05-05T02:45:24.960Z,99246.00
2023-05-05T02:46:25.026Z,99249.00
2023-05-05T02:47:25.005Z,99247.00
2023-05-05T02:48:24.978Z,99253.00
2023-05-05T02:49:24.990Z,99252.00
2023-05-05T02:50:25.015Z,99250.00
2023-05-05T02:51:25.038Z,99253.00
2023-05-05T02:52:25.065Z,99251.00
2023-05-05T02:53:25.102Z,99247.00
2023-05-05T02:54:25.118Z,99253.00
2023-05-05T02:55:25.127Z,99256.00
2023-05-05T02:56:25.144Z,99258.00
2023-05-05T02:57:25.172Z,99254.00
2023-05-05T02:58:25.195Z,99254.00
2023-05-05T02:59:25.221Z,99259.00
2023-05-05T03:00:25.227Z,99256.00
2023-05-05T03:01:25.221Z,99258.00
2023-05-05T03:02:25.320Z,99260.00
2023-05-05T03:03:25.240Z,99265.00
2023-05-05T03:04:25.231Z,99260.00
2023-05-05T03:05:25.220Z,99263.00
2023-05-05T03:06:25.228Z,99265.00
2023-05-05T03:07:25.251Z,99257.00
2023-05-05T03:08:25.253Z,99261.00
2023-05-05T03:09:25.290Z,99259.00
2023-05-05T03:10:25.263Z,99259.00
2023-05-05T03:11:25.284Z,99254.00
2023-05-05T03:12:25.326Z,99258.00
2023-05-05T03:13:25.361Z,99258.00
2023-05-05T03:14:25.348Z,99255.00
2023-05-05T03:15:25.377Z,99259.00
2023-05-05T03:16:25.425Z,99257.00
2023-05-05T03:17:25.404Z,99256.00
2023-05-05T03:18:25.449Z,99253.00
2023-05-05T03:19:25.627Z,99249.00
2023-05-05T03:20:25.403Z,99250.00
2023-05-05T03:21:25.436Z,99255.00
2023-05-05T03:22:25.443Z,99256.00
2023-05-05T03:23:25.469Z,99254.00
2023-05-05T03:24:25.502Z,99256.00
2023-05-05T03:25:25.491Z,99254.00
2023-05-05T03:26:25.455Z,99253.00
2023-05-05T03:27:25.495Z,99250.00
2023-05-05T03:28:25.521Z,99254.00
2023-05-05T03:29:25.540Z,99255.00
2023-05-05T03:30:25.518Z,99256.00
2023-05-05T03:31:25.581Z,99253.00
2023-05-05T03:32:25.571Z,99257.00
2023-05-05T03:33:25.555Z,99253.00
2023-05-05T03:34:25.585Z,99253.00
2023-05-05T03:35:25.589Z,99250.00
2023-05-05T03:36:27.802Z,99251.00
2023-05-05T03:37:25.608Z,99249.00
2023-05-05T03:38:25.630Z,99247.00
2023-05-05T03:39:25.661Z,99248.00
2023-05-05T03:40:36.223Z,99248.00
2023-05-05T03:41:25.660Z,99252.00
2023-05-05T03:42:25.684Z,99249.00
2023-05-05T03:43:25.683Z,99251.00
2023-05-05T03:44:25.737Z,99251.00
2023-05-05T03:45:25.715Z,99246.00
2023-05-05T03:46:25.723Z,99248.00
2023-05-05T03:47:25.804Z,99246.00
2023-05-05T03:48:25.737Z,99245.00
2023-05-05T03:49:25.768Z,99246.00
2023-05-05T03:50:25.823Z,99247.00
2023-05-05T03:51:25.792Z,99248.00
2023-05-05T03:52:25.813Z,99249.00
2023-05-05T03:53:25.844Z,99252.00
2023-05-05T03:54:25.878Z,99252.00
2023-05-05T03:55:25.926Z,99259.00
2023-05-05T03:56:25.890Z,99258.00
2023-05-05T03:57:25.914Z,99262.00
2023-05-05T03:58:25.932Z,99266.00
2023-05-05T03:59:25.940Z,99269.00
2023-05-05T04:00:25.954Z,99269.00
2023-05-05T04:01:25.973Z,99270.00
2023-05-05T04:02:26.092Z,99266.00
2023-05-05T04:03:26.185Z,99272.00
2023-05-05T04:04:26.089Z,99275.00
2023-05-05T04:05:26.019Z,99272.00
2023-05-05T04:06:26.123Z,99271.00
2023-05-05T04:07:26.038Z,99271.00
2023-05-05T04:08:26.069Z,99270.00
2023-05-05T04:09:26.086Z,99272.00
2023-05-05T04:10:26.069Z,99271.00
2023-05-05T04:11:26.106Z,99274.00
2023-05-05T04:12:26.093Z,99271.00
2023-05-05T04:13:26.128Z,99275.00
2023-05-05T04:14:26.119Z,99277.00
2023-05-05T04:15:26.149Z,99281.00
2023-05-05T04:16:26.275Z,99278.00
2023-05-05T04:17:26.169Z,99282.00
2023-05-05T04:18:26.162Z,99279.00
2023-05-05T04:19:26.169Z,99282.00
2023-05-05T04:20:26.194Z,99279.00
2023-05-05T04:21:26.207Z,99283.00
2023-05-05T04:22:26.263Z,99287.00
2023-05-05T04:23:26.231Z,99283.00
2023-05-05T04:24:26.217Z,99283.00
2023-05-05T04:25:26.253Z,99284.00
2023-05-05T04:26:26.249Z,99284.00
2023-05-05T04:27:26.260Z,99285.00
2023-05-05T04:28:26.225Z,99289.00
2023-05-05T04:29:26.218Z,99286.00
2023-05-05T04:30:26.240Z,99287.00
2023-05-05T04:31:26.288Z,99289.00
2023-05-05T04:32:26.322Z,99288.00
2023-05-05T04:33:26.323Z,99286.00
2023-05-05T04:34:26.339Z,99288.00
2023-05-05T04:35:26.361Z,99291.00
2023-05-05T04:36:26.394Z,99291.00
2023-05-05T04:37:26.421Z,99293.00
2023-05-05T04:38:26.621Z,99290.00
2023-05-05T04:39:26.460Z,99283.00
2023-05-05T04:40:26.480Z,99287.00
2023-05-05T04:41:28.258Z,99297.00
2023-05-05T04:42:26.455Z,99296.00
2023-05-05T04:43:26.478Z,99295.00
2023-05-05T04:44:26.500Z,99292.00
2023-05-05T04:45:26.509Z,99291.00
2023-05-05T04:46:26.599Z,99293.00
2023-05-05T04:47:26.556Z,99295.00
2023-05-05T04:48:26.514Z,99296.00
2023-05-05T04:49:26.534Z,99288.00
2023-05-05T04:50:26.560Z,99291.00
2023-05-05T04:51:26.569Z,99292.00
2023-05-05T04:52:26.597Z,99294.00
2023-05-05T04:53:26.616Z,99291.00
2023-05-05T04:54:26.608Z,99292.00
2023-05-05T04:55:26.607Z,99293.00
2023-05-05T04:56:26.641Z,99293.00
2023-05-05T04:57:26.733Z,99297.00
2023-05-05T04:58:26.648Z,99303.00
2023-05-05T04:59:26.674Z,99301.00
2023-05-05T05:01:52.655Z,99296.00
2023-05-05T05:02:52.771Z,99298.00
2023-05-05T05:03:52.753Z,99295.00
2023-05-05T05:04:52.658Z,99295.00
2023-05-05T05:05:52.689Z,99298.00
2023-05-05T05:06:52.700Z,99307.00
2023-05-05T05:07:52.772Z,99302.00
2023-05-05T05:08:52.734Z,99302.00
2023-05-05T05:09:52.809Z,99311.00
2023-05-05T05:10:52.761Z,99314.00
2023-05-05T05:11:52.769Z,99308.00
2023-05-05T05:12:52.858Z,99310.00
2023-05-05T05:13:52.776Z,99308.00
2023-05-05T05:14:52.790Z,99311.00
2023-05-05T05:15:52.790Z,99310.00
2023-05-05T05:16:52.999Z,99313.00
2023-05-05T05:17:52.885Z,99310.00
2023-05-05T05:18:52.864Z,99315.00
2023-05-05T05:19:52.892Z,99314.00
2023-05-05T05:20:52.884Z,99311.00
2023-05-05T05:21:52.927Z,99310.00
2023-05-05T05:22:52.946Z,99314.00
2023-05-05T05:23:52.954Z,99309.00
2023-05-05T05:24:52.976Z,99310.00
2023-05-05T05:25:53.023Z,99312.00
2023-05-05T05:26:53.045Z,99311.00
2023-05-05T05:28:08.331Z,99310.00
2023-05-05T05:28:53.081Z,99307.00
2023-05-05T05:29:53.103Z,99305.00
2023-05-05T05:30:53.118Z,99309.00
2023-05-05T05:31:53.105Z,99316.00
2023-05-05T05:32:53.158Z,99318.00
2023-05-05T05:33:53.131Z,99318.00
2023-05-05T05:34:53.162Z,99319.00
2023-05-05T05:35:53.128Z,99320.00
2023-05-05T05:36:53.132Z,99319.00
2023-05-05T05:37:53.152Z,99318.00
2023-05-05T05:38:53.162Z,99317.00
2023-05-05T05:39:53.208Z,99315.00
2023-05-05T05:40:53.214Z,99318.00
2023-05-05T05:41:53.246Z,99314.00
2023-05-05T05:42:53.317Z,99315.00
2023-05-05T05:43:53.260Z,99318.00
2023-05-05T05:44:53.311Z,99313.00
2023-05-05T05:45:53.365Z,99309.00
2023-05-05T05:46:53.340Z,99310.00
2023-05-05T05:47:53.314Z,99309.00
2023-05-05T05:48:53.299Z,99300.00
2023-05-05T05:49:53.327Z,99302.00
2023-05-05T05:50:53.356Z,99308.00
2023-05-05T05:51:53.362Z,99297.00
2023-05-05T05:52:53.352Z,99294.00
2023-05-05T05:53:53.349Z,99296.00
2023-05-05T05:54:53.395Z,99304.00
2023-05-05T05:55:53.369Z,99311.00
2023-05-05T05:56:53.364Z,99319.00
2023-05-05T05:57:53.395Z,99318.00
2023-05-05T05:58:53.377Z,99319.00
2023-05-05T05:59:53.402Z,99320.00
2023-05-05T06:00:53.410Z,99320.00
2023-05-05T06:01:53.417Z,99321.00
2023-05-05T06:02:53.513Z,99320.00
2023-05-05T06:03:53.511Z,99319.00
2023-05-05T06:04:53.471Z,99321.00
2023-05-05T06:05:53.486Z,99321.00
2023-05-05T06:06:53.487Z,99325.00
2023-05-05T06:07:53.509Z,99327.00
2023-05-05T06:08:53.509Z,99323.00
2023-05-05T06:09:53.544Z,99324.00
2023-05-05T06:10:53.556Z,99322.00
2023-05-05T06:11:53.573Z,99328.00
2023-05-05T06:12:53.715Z,99328.00
2023-05-05T06:13:53.651Z,99327.00
2023-05-05T06:14:53.666Z,99323.00
2023-05-05T06:15:53.683Z,99320.00
2023-05-05T06:16:53.656Z,99318.00
2023-05-05T06:17:53.749Z,99315.00
2023-05-05T06:18:53.667Z,99320.00
2023-05-05T06:19:54.599Z,99320.00
2023-05-05T06:20:53.707Z,99314.00
2023-05-05T06:21:53.746Z,99315.00
2023-05-05T06:22:53.727Z,99314.00
2023-05-05T06:23:53.759Z,99316.00
2023-05-05T06:24:53.785Z,99318.00
2023-05-05T06:25:53.808Z,99316.00
2023-05-05T06:26:53.828Z,99316.00
2023-05-05T06:27:53.840Z,99316.00
2023-05-05T06:28:53.850Z,99315.00
2023-05-05T06:29:53.870Z,99314.00
2023-05-05T06:30:53.835Z,99316.00
2023-05-05T06:31:54.005Z,99319.00
2023-05-05T06:32:53.895Z,99324.00
2023-05-05T06:33:53.918Z,99320.00
2023-05-05T06:34:53.894Z,99323.00
2023-05-05T06:35:53.906Z,99327.00
2023-05-05T06:36:54.099Z,99325.00
2023-05-05T06:37:53.951Z,99323.00
2023-05-05T06:38:53.946Z,99323.00
2023-05-05T06:39:53.974Z,99321.00
2023-05-05T06:40:53.981Z,99319.00
2023-05-05T06:41:54.024Z,99322.00
2023-05-05T06:42:54.035Z,99323.00
2023-05-05T06:43:54.049Z,99322.00
2023-05-05T06:44:54.064Z,99324.00
2023-05-05T06:45:54.112Z,99325.00
2023-05-05T06:46:54.115Z,99321.00
2023-05-05T06:47:54.184Z,99317.00
2023-05-05T06:48:54.107Z,99321.00
2023-05-05T06:49:54.106Z,99319.00
2023-05-05T06:50:54.129Z,99320.00
2023-05-05T06:51:54.126Z,99321.00
2023-05-05T06:52:54.150Z,99316.00
2023-05-05T06:53:54.168Z,99317.00
2023-05-05T06:54:54.176Z,99317.00
2023-05-05T06:55:54.220Z,99318.00
2023-05-05T06:56:54.216Z,99317.00
2023-05-05T06:57:54.236Z,99320.00
2023-05-05T06:58:54.257Z,99321.00
2023-05-05T06:59:54.279Z,99322.00
2023-05-05T07:00:54.411Z,99322.00
2023-05-05T07:01:54.500Z,99321.00
2023-05-05T07:02:54.417Z,99324.00
2023-05-05T07:03:54.354Z,99327.00
2023-05-05T07:04:54.390Z,99320.00
2023-05-05T07:05:54.427Z,99322.00
2023-05-05T07:06:54.403Z,99322.00
2023-05-05T07:07:54.392Z,99323.00
2023-05-05T07:08:54.389Z,99325.00
2023-05-05T07:09:54.417Z,99323.00
2023-05-05T07:10:54.457Z,99330.00
2023-05-05T07:11:54.439Z,99327.00
2023-05-05T07:12:54.480Z,99326.00
2023-05-05T07:13:54.490Z,99331.00
2023-05-05T07:14:54.514Z,99333.00
2023-05-05T07:15:54.528Z,99330.00
2023-05-05T07:16:54.626Z,99332.00
2023-05-05T07:17:54.770Z,99330.00
2023-05-05T07:18:54.630Z,99321.00
2023-05-05T07:19:54.548Z,99321.00
2023-05-05T07:20:54.573Z,99326.00
2023-05-05T07:21:54.655Z,99325.00
2023-05-05T07:22:54.665Z,99322.00
2023-05-05T07:23:54.657Z,99320.00
2023-05-05T07:24:54.686Z,99323.00
2023-05-05T07:25:54.665Z,99326.00
2023-05-05T07:26:54.667Z,99324.00
2023-05-05T07:27:54.696Z,99331.00
2023-05-05T07:28:54.702Z,99330.00
2023-05-05T07:29:54.727Z,99331.00
2023-05-05T07:30:54.754Z,99329.00
2023-05-05T07:31:54.841Z,99330.00
2023-05-05T07:32:55.158Z,99336.00
2023-05-05T07:33:54.908Z,99330.00
2023-05-05T07:34:54.858Z,99330.00
2023-05-05T07:35:54.845Z,99332.00
2023-05-05T07:36:54.831Z,99334.00
2023-05-05T07:37:54.853Z,99330.00
2023-05-05T07:38:54.847Z,99330.00
2023-05-05T07:39:54.884Z,99327.00
2023-05-05T07:40:54.867Z,99325.00
2023-05-05T07:41:54.899Z,99326.00
2023-05-05T07:42:54.934Z,99321.00
2023-05-05T07:43:54.967Z,99323.00
2023-05-05T07:44:54.938Z,99325.00
2023-05-05T07:45:55.009Z,99327.00
2023-05-05T07:46:54.973Z,99324.00
2023-05-05T07:47:55.011Z,99324.00
2023-05-05T07:48:54.999Z,99325.00
2023-05-05T07:49:55.240Z,99326.00
2023-05-05T07:50:55.000Z,99324.00
2023-05-05T07:51:54.995Z,99322.00
2023-05-05T07:53:54.999Z,99328.00
2023-05-05T07:54:55.065Z,99331.00
2023-05-05T07:55:55.044Z,99329.00
2023-05-05T07:56:55.065Z,99331.00
2023-05-05T07:57:55.068Z,99326.00
2023-05-05T07:58:55.099Z,99331.00
2023-05-05T07:59:55.074Z,99330.00
2023-05-05T08:00:55.091Z,99331.00
2023-05-05T08:01:55.147Z,99331.00
2023-05-05T08:02:55.289Z,99332.00
2023-05-05T08:03:55.320Z,99337.00
2023-05-05T08:04:55.148Z,99337.00
2023-05-05T08:05:55.332Z,99336.00
2023-05-05T08:06:55.204Z,99336.00
2023-05-05T08:07:55.194Z,99337.00
2023-05-05T08:08:55.223Z,99337.00
2023-05-05T08:09:55.244Z,99334.00
2023-05-05T08:10:55.270Z,99330.00
2023-05-05T08:11:55.266Z,99332.00
2023-05-05T08:12:55.266Z,99331.00
2023-05-05T08:13:55.277Z,99331.00
2023-05-05T08:14:55.251Z,99329.00
2023-05-05T08:15:55.308Z,99326.00
2023-05-05T08:16:55.284Z,99332.00
2023-05-05T08:17:55.319Z,99326.00
2023-05-05T08:18:55.292Z,99326.00
2023-05-05T08:19:55.310Z,99327.00
2023-05-05T08:20:55.335Z,99325.00
2023-05-05T08:21:55.458Z,99325.00
2023-05-05T08:22:55.382Z,99325.00
2023-05-05T08:23:55.428Z,99325.00
2023-05-05T08:24:55.405Z,99319.00
2023-05-05T08:25:55.421Z,99327.00
2023-05-05T08:26:55.435Z,99324.00
2023-05-05T08:27:55.435Z,99325.00
2023-05-05T08:28:55.410Z,99325.00
2023-05-05T08:29:55.432Z,99324.00
2023-05-05T08:30:55.454Z,99329.00
2023-05-05T08:31:55.599Z,99328.00
2023-05-05T08:32:55.615Z,99330.00
2023-05-05T08:33:55.497Z,99331.00
2023-05-05T08:34:56.305Z,99328.00
2023-05-05T08:35:55.542Z,99328.00
2023-05-05T08:36:55.506Z,99327.00
2023-05-05T08:37:58.158Z,99326.00
2023-05-05T08:38:55.506Z,99330.00
2023-05-05T08:39:55.527Z,99326.00
2023-05-05T08:40:55.554Z,99324.00
2023-05-05T08:41:55.540Z,99324.00
2023-05-05T08:42:55.546Z,99327.00
2023-05-05T08:43:55.558Z,99326.00
2023-05-05T08:44:57.271Z,99328.00
2023-05-05T08:45:55.624Z,99326.00
2023-05-05T08:46:55.623Z,99326.00
2023-05-05T08:47:55.654Z,99318.00
2023-05-05T08:48:55.628Z,99321.00
2023-05-05T08:49:55.613Z,99318.00
2023-05-05T08:50:57.270Z,99317.00
2023-05-05T08:51:55.680Z,99317.00
2023-05-05T08:52:55.654Z,99318.00
2023-05-05T08:53:55.758Z,99316.00
2023-05-05T08:54:55.649Z,99312.00
2023-05-05T08:55:55.644Z,99318.00
2023-05-05T08:56:55.749Z,99318.00
2023-05-05T08:57:55.740Z,99311.00
2023-05-05T08:58:55.681Z,99315.00
2023-05-05T08:59:55.693Z,99315.00
2023-05-05T09:00:55.775Z,99319.00
2023-05-05T09:01:55.833Z,99316.00
2023-05-05T09:02:55.854Z,99321.00
2023-05-05T09:03:55.732Z,99322.00
2023-05-05T09:04:55.741Z,99316.00
2023-05-05T09:05:55.745Z,99318.00
2023-05-05T09:06:55.792Z,99324.00
2023-05-05T09:07:55.767Z,99317.00
2023-05-05T09:08:58.965Z,99321.00
2023-05-05T09:09:55.971Z,99313.00
2023-05-05T09:10:55.851Z,99312.00
2023-05-05T09:11:55.905Z,99314.00
2023-05-05T09:12:55.918Z,99314.00
2023-05-05T09:13:55.916Z,99315.00
2023-05-05T09:14:57.890Z,99316.00
2023-05-05T09:15:55.896Z,99319.00
2023-05-05T09:16:55.953Z,99318.00
2023-05-05T09:17:56.028Z,99313.00
2023-05-05T09:18:55.908Z,99311.00
2023-05-05T09:19:55.933Z,99310.00
2023-05-05T09:20:57.513Z,99310.00
2023-05-05T09:21:55.983Z,99310.00
2023-05-05T09:22:55.948Z,99310.00
2023-05-05T09:23:58.509Z,99317.00
2023-05-05T09:24:56.001Z,99313.00
2023-05-05T09:25:56.105Z,99314.00
2023-05-05T09:26:57.383Z,99312.00
2023-05-05T09:27:56.055Z,99312.00
2023-05-05T09:28:56.045Z,99314.00
2023-05-05T09:29:56.035Z,99312.00
2023-05-05T09:30:56.102Z,99313.00
2023-05-05T09:31:56.049Z,99312.00
2023-05-05T09:32:56.181Z,99313.00
2023-05-05T09:33:56.118Z,99308.00
2023-05-05T09:34:56.102Z,99302.00
2023-05-05T09:35:56.116Z,99306.00
2023-05-05T09:36:56.119Z,99303.00
2023-05-05T09:37:56.116Z,99304.00
2023-05-05T09:38:58.301Z,99301.00
2023-05-05T09:39:56.149Z,99300.00
2023-05-05T09:40:56.174Z,99299.00
2023-05-05T09:41:56.368Z,99298.00
2023-05-05T09:42:56.147Z,99299.00
2023-05-05T09:43:56.193Z,99293.00
2023-05-05T09:44:57.855Z,99297.00
2023-05-05T09:45:56.188Z,99299.00
2023-05-05T09:46:56.173Z,99299.00
2023-05-05T09:47:59.615Z,99296.00
2023-05-05T09:48:56.186Z,99291.00
2023-05-05T09:49:56.175Z,99294.00
2023-05-05T09:50:56.202Z,99296.00
2023-05-05T09:51:56.228Z,99294.00
2023-05-05T09:52:56.297Z,99293.00
2023-05-05T09:53:56.301Z,99292.00
2023-05-05T09:54:56.274Z,99293.00
2023-05-05T09:55:56.324Z,99292.00
2023-05-05T09:56:56.328Z,99294.00
2023-05-05T09:57:56.530Z,99293.00
2023-05-05T09:58:58.210Z,99291.00
2023-05-05T09:59:56.387Z,99292.00
2023-05-05T10:00:56.419Z,99288.00
2023-05-05T10:01:56.549Z,99290.00
2023-05-05T10:02:56.476Z,99290.00
2023-05-05T10:03:56.487Z,99290.00
2023-05-05T10:04:56.574Z,99289.00
2023-05-05T10:05:56.528Z,99289.00
2023-05-05T10:06:56.501Z,99291.00
2023-05-05T10:07:56.522Z,99292.00
2023-05-05T10:08:56.547Z,99287.00
2023-05-05T10:09:56.550Z,99294.00
2023-05-05T10:10:56.602Z,99289.00
2023-05-05T10:11:56.585Z,99289.00
2023-05-05T10:12:56.621Z,99288.00
2023-05-05T10:13:56.704Z,99287.00
2023-05-05T10:14:56.625Z,99290.00
2023-05-05T10:15:56.775Z,99292.00
2023-05-05T10:16:56.704Z,99291.00
2023-05-05T10:18:06.706Z,99286.00
2023-05-05T10:18:56.697Z,99288.00
2023-05-05T10:19:56.704Z,99286.00
2023-05-05T10:20:56.735Z,99286.00
2023-05-05T10:21:56.707Z,99284.00
2023-05-05T10:22:56.744Z,99286.00
2023-05-05T10:23:56.781Z,99280.00
2023-05-05T10:24:56.757Z,99282.00
2023-05-05T10:25:56.810Z,99281.00
2023-05-05T10:26:56.791Z,99280.00
2023-05-05T10:27:56.796Z,99282.00
2023-05-05T10:28:56.813Z,99276.00
2023-05-05T10:29:56.921Z,99284.00
2023-05-05T10:30:56.869Z,99276.00
2023-05-05T10:31:56.889Z,99274.00
2023-05-05T10:33:05.084Z,99265.00
2023-05-05T10:33:56.998Z,99258.00
2023-05-05T10:34:56.928Z,99242.00
2023-05-05T10:35:56.956Z,99262.00
2023-05-05T10:36:56.961Z,99264.00
2023-05-05T10:37:56.996Z,99256.00
2023-05-05T10:38:57.037Z,99260.00
2023-05-05T10:39:57.054Z,99253.00
2023-05-05T10:40:57.089Z,99248.00
2023-05-05T10:41:57.074Z,99257.00
2023-05-05T10:42:57.111Z,99258.00
2023-05-05T10:43:57.163Z,99255.00
2023-05-05T10:44:57.175Z,99257.00
2023-05-05T10:45:57.369Z,99252.00
2023-05-05T10:46:57.147Z,99257.00
2023-05-05T10:47:57.156Z,99248.00
2023-05-05T10:48:57.167Z,99241.00
2023-05-05T10:49:57.131Z,99243.00
2023-05-05T10:50:57.161Z,99242.00
2023-05-05T10:51:57.192Z,99240.00
2023-05-05T10:52:57.233Z,99241.00
2023-05-05T10:53:57.231Z,99240.00
2023-05-05T10:54:57.220Z,99242.00
2023-05-05T10:55:57.262Z,99237.00
2023-05-05T10:56:57.400Z,99238.00
2023-05-05T10:57:57.358Z,99237.00
2023-05-05T10:59:00.621Z,99239.00
2023-05-05T10:59:57.265Z,99235.00
2023-05-05T11:00:57.394Z,99236.00
2023-05-05T11:01:57.392Z,99233.00
2023-05-05T11:02:57.458Z,99234.00
2023-05-05T11:03:57.353Z,99233.00
2023-05-05T11:04:57.384Z,99234.00
2023-05-05T11:05:57.384Z,99230.00
2023-05-05T11:06:57.402Z,99228.00
2023-05-05T11:07:57.469Z,99235.00
2023-05-05T11:08:57.459Z,99234.00
2023-05-05T11:09:57.478Z,99229.00
2023-05-05T11:10:57.515Z,99234.00
2023-05-05T11:11:57.504Z,99231.00
2023-05-05T11:12:57.574Z,99231.00
2023-05-05T11:13:57.536Z,99225.00
2023-05-05T11:14:57.543Z,99219.00
2023-05-05T11:15:57.576Z,99223.00
2023-05-05T11:16:57.643Z,99215.00
2023-05-05T11:17:57.877Z,99217.00
2023-05-05T11:18:57.654Z,99213.00
2023-05-05T11:19:57.690Z,99212.00
2023-05-05T11:20:57.692Z,99212.00
2023-05-05T11:21:57.719Z,99212.00
2023-05-05T11:22:57.751Z,99210.00
2023-05-05T11:23:57.781Z,99201.00
2023-05-05T11:24:57.769Z,99208.00
2023-05-05T11:25:57.792Z,99205.00
2023-05-05T11:26:57.809Z,99206.00
2023-05-05T11:27:57.822Z,99208.00
2023-05-05T11:28:57.866Z,99206.00
2023-05-05T11:29:57.872Z,99204.00
2023-05-05T11:30:58.537Z,99205.00
2023-05-05T11:31:57.905Z,99205.00
2023-05-05T11:32:57.951Z,99203.00
2023-05-05T11:33:58.030Z,99206.00
2023-05-05T11:34:57.952Z,99207.00
2023-05-05T11:35:57.957Z,99201.00
2023-05-05T11:36:57.927Z,99204.00
2023-05-05T11:37:57.959Z,99205.00
2023-05-05T11:38:57.975Z,99201.00
2023-05-05T11:39:57.989Z,99206.00
2023-05-05T11:40:58.001Z,99207.00
2023-05-05T11:41:58.033Z,99206.00
2023-05-05T11:42:58.068Z,99205.00
2023-05-05T11:43:58.062Z,99200.00
2023-05-05T11:44:58.078Z,99200.00
2023-05-05T11:45:58.118Z,99197.00
2023-05-05T11:47:01.093Z,99198.00